sensor_id;sensor_type;location;lat;lon;timestamp;temperature;humidity
3727;DHT22;1879;45.876;12.300;2023-02-13T00:01:16;4.40;90.90
3727;DHT22;1879;45.876;12.300;2023-02-13T00:03:43;4.40;90.40
3727;DHT22;1879;45.876;12.300;2023-02-13T00:06:12;4.40;90.30
3727;DHT22;1879;45.876;12.300;2023-02-13T00:08:39;4.40;90.70
3727;DHT22;1879;45.876;12.300;2023-02-13T00:11:06;4.40;90.90
3727;DHT22;1879;45.876;12.300;2023-02-13T00:13:33;4.30;91.00
3727;DHT22;1879;45.876;12.300;2023-02-13T00:16:02;4.30;90.80
3727;DHT22;1879;45.876;12.300;2023-02-13T00:18:33;4.30;91.40
3727;DHT22;1879;45.876;12.300;2023-02-13T00:21:01;4.30;91.20
3727;DHT22;1879;45.876;12.300;2023-02-13T00:23:31;4.20;91.10
3727;DHT22;1879;45.876;12.300;2023-02-13T00:25:59;4.10;91.50
3727;DHT22;1879;45.876;12.300;2023-02-13T00:28:26;4.00;91.90
3727;DHT22;1879;45.876;12.300;2023-02-13T00:30:53;3.90;92.20
3727;DHT22;1879;45.876;12.300;2023-02-13T00:33:20;3.90;92.60
3727;DHT22;1879;45.876;12.300;2023-02-13T00:35:47;3.80;92.90
3727;DHT22;1879;45.876;12.300;2023-02-13T00:38:14;3.80;93.00
3727;DHT22;1879;45.876;12.300;2023-02-13T00:40:43;3.70;93.40
3727;DHT22;1879;45.876;12.300;2023-02-13T00:43:10;3.70;93.80
3727;DHT22;1879;45.876;12.300;2023-02-13T00:45:36;3.80;94.10
3727;DHT22;1879;45.876;12.300;2023-02-13T00:48:04;3.80;94.20
3727;DHT22;1879;45.876;12.300;2023-02-13T00:50:30;3.90;94.50
3727;DHT22;1879;45.876;12.300;2023-02-13T00:52:57;3.90;94.20
3727;DHT22;1879;45.876;12.300;2023-02-13T00:55:24;4.00;94.10
3727;DHT22;1879;45.876;12.300;2023-02-13T00:57:55;4.00;93.80
3727;DHT22;1879;45.876;12.300;2023-02-13T01:00:23;4.00;93.80
3727;DHT22;1879;45.876;12.300;2023-02-13T01:02:50;4.00;93.40
3727;DHT22;1879;45.876;12.300;2023-02-13T01:05:17;4.10;92.80
3727;DHT22;1879;45.876;12.300;2023-02-13T01:07:44;4.10;92.60
3727;DHT22;1879;45.876;12.300;2023-02-13T01:10:11;4.10;92.50
3727;DHT22;1879;45.876;12.300;2023-02-13T01:12:38;4.10;92.60
3727;DHT22;1879;45.876;12.300;2023-02-13T01:15:07;4.10;92.90
3727;DHT22;1879;45.876;12.300;2023-02-13T01:17:34;4.10;93.00
3727;DHT22;1879;45.876;12.300;2023-02-13T01:20:04;4.10;93.10
3727;DHT22;1879;45.876;12.300;2023-02-13T01:22:32;4.10;92.90
3727;DHT22;1879;45.876;12.300;2023-02-13T01:24:59;4.10;92.90
3727;DHT22;1879;45.876;12.300;2023-02-13T01:27:27;4.10;92.30
3727;DHT22;1879;45.876;12.300;2023-02-13T01:29:54;4.10;91.90
3727;DHT22;1879;45.876;12.300;2023-02-13T01:32:23;4.00;92.70
3727;DHT22;1879;45.876;12.300;2023-02-13T01:34:50;3.90;93.20
3727;DHT22;1879;45.876;12.300;2023-02-13T01:37:17;3.80;93.10
3727;DHT22;1879;45.876;12.300;2023-02-13T01:39:44;3.70;93.90
3727;DHT22;1879;45.876;12.300;2023-02-13T01:42:15;3.70;93.60
3727;DHT22;1879;45.876;12.300;2023-02-13T01:44:48;3.60;93.80
3727;DHT22;1879;45.876;12.300;2023-02-13T01:47:19;3.50;94.60
3727;DHT22;1879;45.876;12.300;2023-02-13T01:49:53;3.40;94.30
3727;DHT22;1879;45.876;12.300;2023-02-13T01:52:22;3.30;94.30
3727;DHT22;1879;45.876;12.300;2023-02-13T01:54:50;3.20;94.60
3727;DHT22;1879;45.876;12.300;2023-02-13T01:57:19;3.20;94.80
3727;DHT22;1879;45.876;12.300;2023-02-13T01:59:50;3.20;94.80
3727;DHT22;1879;45.876;12.300;2023-02-13T02:02:19;3.10;94.90
3727;DHT22;1879;45.876;12.300;2023-02-13T02:04:48;3.10;94.70
3727;DHT22;1879;45.876;12.300;2023-02-13T02:07:19;3.10;96.60
3727;DHT22;1879;45.876;12.300;2023-02-13T02:09:47;3.10;98.00
3727;DHT22;1879;45.876;12.300;2023-02-13T02:12:22;3.10;97.40
3727;DHT22;1879;45.876;12.300;2023-02-13T02:14:51;3.20;97.60
3727;DHT22;1879;45.876;12.300;2023-02-13T02:17:19;3.20;96.60
3727;DHT22;1879;45.876;12.300;2023-02-13T02:19:54;3.20;96.40
3727;DHT22;1879;45.876;12.300;2023-02-13T02:22:54;3.20;97.00
3727;DHT22;1879;45.876;12.300;2023-02-13T02:28:31;3.20;97.80
3727;DHT22;1879;45.876;12.300;2023-02-13T02:34:09;3.20;98.30
3727;DHT22;1879;45.876;12.300;2023-02-13T02:36:53;3.20;98.10
3727;DHT22;1879;45.876;12.300;2023-02-13T02:39:31;3.20;98.20
3727;DHT22;1879;45.876;12.300;2023-02-13T02:42:11;3.20;98.20
3727;DHT22;1879;45.876;12.300;2023-02-13T02:44:50;3.20;98.30
3727;DHT22;1879;45.876;12.300;2023-02-13T02:47:24;3.20;98.50
3727;DHT22;1879;45.876;12.300;2023-02-13T02:50:22;3.20;98.30
3727;DHT22;1879;45.876;12.300;2023-02-13T02:52:59;3.20;98.20
3727;DHT22;1879;45.876;12.300;2023-02-13T02:55:36;3.10;99.30
3727;DHT22;1879;45.876;12.300;2023-02-13T02:58:11;3.20;98.80
3727;DHT22;1879;45.876;12.300;2023-02-13T03:01:00;3.30;98.60
3727;DHT22;1879;45.876;12.300;2023-02-13T03:03:46;3.20;98.40
3727;DHT22;1879;45.876;12.300;2023-02-13T03:06:35;3.20;98.70
3727;DHT22;1879;45.876;12.300;2023-02-13T03:09:10;3.30;99.00
3727;DHT22;1879;45.876;12.300;2023-02-13T03:11:56;3.20;98.70
3727;DHT22;1879;45.876;12.300;2023-02-13T03:14:41;3.30;98.80
3727;DHT22;1879;45.876;12.300;2023-02-13T03:17:10;3.30;98.70
3727;DHT22;1879;45.876;12.300;2023-02-13T03:20:02;3.20;99.00
3727;DHT22;1879;45.876;12.300;2023-02-13T03:23:02;3.20;99.30
3727;DHT22;1879;45.876;12.300;2023-02-13T03:25:37;3.20;99.90
3727;DHT22;1879;45.876;12.300;2023-02-13T03:28:13;3.20;99.60
3727;DHT22;1879;45.876;12.300;2023-02-13T03:31:07;3.10;99.90
3727;DHT22;1879;45.876;12.300;2023-02-13T03:33:47;3.20;99.90
3727;DHT22;1879;45.876;12.300;2023-02-13T03:36:21;3.10;99.90
3727;DHT22;1879;45.876;12.300;2023-02-13T03:39:11;3.10;99.90
3727;DHT22;1879;45.876;12.300;2023-02-13T03:41:41;3.10;99.90
3727;DHT22;1879;45.876;12.300;2023-02-13T03:44:14;3.10;99.90
3727;DHT22;1879;45.876;12.300;2023-02-13T03:46:45;3.10;99.90
3727;DHT22;1879;45.876;12.300;2023-02-13T03:49:19;3.20;99.90
3727;DHT22;1879;45.876;12.300;2023-02-13T03:52:08;3.10;99.90
3727;DHT22;1879;45.876;12.300;2023-02-13T03:54:42;3.10;99.90
3727;DHT22;1879;45.876;12.300;2023-02-13T03:57:29;3.10;99.90
3727;DHT22;1879;45.876;12.300;2023-02-13T04:00:16;3.10;99.90
3727;DHT22;1879;45.876;12.300;2023-02-13T04:02:55;3.10;99.90
3727;DHT22;1879;45.876;12.300;2023-02-13T04:05:28;3.20;99.90
3727;DHT22;1879;45.876;12.300;2023-02-13T04:07:56;3.20;99.90
3727;DHT22;1879;45.876;12.300;2023-02-13T04:10:26;3.20;99.90
3727;DHT22;1879;45.876;12.300;2023-02-13T04:13:02;3.10;99.90
3727;DHT22;1879;45.876;12.300;2023-02-13T04:15:35;3.10;99.90
3727;DHT22;1879;45.876;12.300;2023-02-13T04:18:07;3.00;99.90
3727;DHT22;1879;45.876;12.300;2023-02-13T04:20:35;3.00;99.90
3727;DHT22;1879;45.876;12.300;2023-02-13T04:23:04;2.90;99.90
3727;DHT22;1879;45.876;12.300;2023-02-13T04:25:37;2.90;99.90
3727;DHT22;1879;45.876;12.300;2023-02-13T04:28:05;2.90;99.90
3727;DHT22;1879;45.876;12.300;2023-02-13T04:30:32;2.80;99.90
3727;DHT22;1879;45.876;12.300;2023-02-13T04:32:59;2.90;99.90
3727;DHT22;1879;45.876;12.300;2023-02-13T04:35:26;2.90;99.90
3727;DHT22;1879;45.876;12.300;2023-02-13T04:37:53;2.90;99.90
3727;DHT22;1879;45.876;12.300;2023-02-13T04:40:20;3.00;99.90
3727;DHT22;1879;45.876;12.300;2023-02-13T04:42:49;3.00;99.90
3727;DHT22;1879;45.876;12.300;2023-02-13T04:45:16;3.10;99.90
3727;DHT22;1879;45.876;12.300;2023-02-13T04:47:49;3.10;99.90
3727;DHT22;1879;45.876;12.300;2023-02-13T04:50:17;3.20;99.90
3727;DHT22;1879;45.876;12.300;2023-02-13T04:52:43;3.10;99.90
3727;DHT22;1879;45.876;12.300;2023-02-13T04:55:11;3.10;99.90
3727;DHT22;1879;45.876;12.300;2023-02-13T04:57:38;3.10;99.90
3727;DHT22;1879;45.876;12.300;2023-02-13T05:00:08;2.90;99.90
3727;DHT22;1879;45.876;12.300;2023-02-13T05:02:35;2.80;99.90
3727;DHT22;1879;45.876;12.300;2023-02-13T05:05:02;2.80;99.90
3727;DHT22;1879;45.876;12.300;2023-02-13T05:07:29;2.80;99.90
3727;DHT22;1879;45.876;12.300;2023-02-13T05:09:56;2.80;99.90
3727;DHT22;1879;45.876;12.300;2023-02-13T05:12:23;2.80;99.90
3727;DHT22;1879;45.876;12.300;2023-02-13T05:14:50;2.80;99.90
3727;DHT22;1879;45.876;12.300;2023-02-13T05:17:18;2.70;99.90
3727;DHT22;1879;45.876;12.300;2023-02-13T05:19:45;2.70;99.90
3727;DHT22;1879;45.876;12.300;2023-02-13T05:22:12;2.60;99.90
3727;DHT22;1879;45.876;12.300;2023-02-13T05:24:56;2.60;99.90
3727;DHT22;1879;45.876;12.300;2023-02-13T05:27:23;2.60;99.90
3727;DHT22;1879;45.876;12.300;2023-02-13T05:29:50;2.60;99.90
3727;DHT22;1879;45.876;12.300;2023-02-13T05:32:19;2.60;99.90
3727;DHT22;1879;45.876;12.300;2023-02-13T05:34:46;2.60;99.90
3727;DHT22;1879;45.876;12.300;2023-02-13T05:37:12;2.60;99.90
3727;DHT22;1879;45.876;12.300;2023-02-13T05:39:39;2.50;99.90
3727;DHT22;1879;45.876;12.300;2023-02-13T05:42:06;2.60;99.90
3727;DHT22;1879;45.876;12.300;2023-02-13T05:44:35;2.60;99.90
3727;DHT22;1879;45.876;12.300;2023-02-13T05:47:02;2.60;99.90
3727;DHT22;1879;45.876;12.300;2023-02-13T05:49:30;2.50;99.90
3727;DHT22;1879;45.876;12.300;2023-02-13T05:51:57;2.50;99.90
3727;DHT22;1879;45.876;12.300;2023-02-13T05:54:24;2.60;99.90
3727;DHT22;1879;45.876;12.300;2023-02-13T05:56:51;2.50;99.90
3727;DHT22;1879;45.876;12.300;2023-02-13T05:59:18;2.50;99.90
3727;DHT22;1879;45.876;12.300;2023-02-13T06:01:45;2.60;99.90
3727;DHT22;1879;45.876;12.300;2023-02-13T06:04:12;2.70;99.90
3727;DHT22;1879;45.876;12.300;2023-02-13T06:06:41;2.70;99.90
3727;DHT22;1879;45.876;12.300;2023-02-13T06:09:08;2.80;99.90
3727;DHT22;1879;45.876;12.300;2023-02-13T06:11:35;2.80;99.90
3727;DHT22;1879;45.876;12.300;2023-02-13T06:14:02;2.90;99.90
3727;DHT22;1879;45.876;12.300;2023-02-13T06:16:28;2.90;99.90
3727;DHT22;1879;45.876;12.300;2023-02-13T06:18:56;2.90;99.90
3727;DHT22;1879;45.876;12.300;2023-02-13T06:21:23;2.90;99.90
3727;DHT22;1879;45.876;12.300;2023-02-13T06:23:52;2.90;99.90
3727;DHT22;1879;45.876;12.300;2023-02-13T06:26:18;2.90;99.90
3727;DHT22;1879;45.876;12.300;2023-02-13T06:28:45;2.80;99.90
3727;DHT22;1879;45.876;12.300;2023-02-13T06:31:12;2.80;99.90
3727;DHT22;1879;45.876;12.300;2023-02-13T06:33:39;2.80;99.90
3727;DHT22;1879;45.876;12.300;2023-02-13T06:36:06;3.00;99.90
3727;DHT22;1879;45.876;12.300;2023-02-13T06:38:33;3.10;99.90
3727;DHT22;1879;45.876;12.300;2023-02-13T06:41:02;3.20;99.90
3727;DHT22;1879;45.876;12.300;2023-02-13T06:43:29;3.30;99.90
3727;DHT22;1879;45.876;12.300;2023-02-13T06:45:56;3.30;99.90
3727;DHT22;1879;45.876;12.300;2023-02-13T06:48:23;3.40;99.90
3727;DHT22;1879;45.876;12.300;2023-02-13T06:50:50;3.40;99.90
3727;DHT22;1879;45.876;12.300;2023-02-13T06:53:18;3.50;99.90
3727;DHT22;1879;45.876;12.300;2023-02-13T06:55:49;3.50;99.90
3727;DHT22;1879;45.876;12.300;2023-02-13T06:58:18;3.50;99.90
3727;DHT22;1879;45.876;12.300;2023-02-13T07:00:45;3.60;99.90
3727;DHT22;1879;45.876;12.300;2023-02-13T07:03:12;3.60;99.90
3727;DHT22;1879;45.876;12.300;2023-02-13T07:05:39;3.60;99.90
3727;DHT22;1879;45.876;12.300;2023-02-13T07:08:06;3.60;99.90
3727;DHT22;1879;45.876;12.300;2023-02-13T07:10:36;3.70;99.90
3727;DHT22;1879;45.876;12.300;2023-02-13T07:13:03;3.80;99.90
3727;DHT22;1879;45.876;12.300;2023-02-13T07:15:31;3.90;99.90
3727;DHT22;1879;45.876;12.300;2023-02-13T07:17:58;4.00;99.90
3727;DHT22;1879;45.876;12.300;2023-02-13T07:20:26;4.10;99.90
3727;DHT22;1879;45.876;12.300;2023-02-13T07:22:56;4.20;99.90
3727;DHT22;1879;45.876;12.300;2023-02-13T07:25:23;4.50;99.90
3727;DHT22;1879;45.876;12.300;2023-02-13T07:27:50;4.40;99.90
3727;DHT22;1879;45.876;12.300;2023-02-13T07:30:18;4.60;99.90
3727;DHT22;1879;45.876;12.300;2023-02-13T07:32:46;4.60;99.90
3727;DHT22;1879;45.876;12.300;2023-02-13T07:35:13;4.70;99.90
3727;DHT22;1879;45.876;12.300;2023-02-13T07:37:40;4.70;99.90
3727;DHT22;1879;45.876;12.300;2023-02-13T07:40:08;4.70;99.90
3727;DHT22;1879;45.876;12.300;2023-02-13T07:42:35;4.80;99.90
3727;DHT22;1879;45.876;12.300;2023-02-13T07:45:02;4.90;99.90
3727;DHT22;1879;45.876;12.300;2023-02-13T07:47:32;5.00;99.70
3727;DHT22;1879;45.876;12.300;2023-02-13T07:50:01;5.10;99.70
3727;DHT22;1879;45.876;12.300;2023-02-13T07:52:30;5.10;99.50
3727;DHT22;1879;45.876;12.300;2023-02-13T07:54:57;5.20;99.50
3727;DHT22;1879;45.876;12.300;2023-02-13T07:57:24;5.30;99.40
3727;DHT22;1879;45.876;12.300;2023-02-13T07:59:51;5.40;99.40
3727;DHT22;1879;45.876;12.300;2023-02-13T08:02:18;5.50;99.20
3727;DHT22;1879;45.876;12.300;2023-02-13T08:04:45;5.50;99.00
3727;DHT22;1879;45.876;12.300;2023-02-13T08:07:15;5.60;98.70
3727;DHT22;1879;45.876;12.300;2023-02-13T08:09:43;5.70;98.50
3727;DHT22;1879;45.876;12.300;2023-02-13T08:12:28;5.80;98.60
3727;DHT22;1879;45.876;12.300;2023-02-13T08:14:55;5.90;98.30
3727;DHT22;1879;45.876;12.300;2023-02-13T08:17:22;6.00;97.90
3727;DHT22;1879;45.876;12.300;2023-02-13T08:19:49;6.10;97.60
3727;DHT22;1879;45.876;12.300;2023-02-13T08:22:17;6.20;97.60
3727;DHT22;1879;45.876;12.300;2023-02-13T08:24:44;6.30;97.50
3727;DHT22;1879;45.876;12.300;2023-02-13T08:27:12;6.50;97.40
3727;DHT22;1879;45.876;12.300;2023-02-13T08:29:39;6.60;97.30
3727;DHT22;1879;45.876;12.300;2023-02-13T08:32:07;6.70;96.90
3727;DHT22;1879;45.876;12.300;2023-02-13T08:34:33;6.80;96.70
3727;DHT22;1879;45.876;12.300;2023-02-13T08:37:01;6.90;96.50
3727;DHT22;1879;45.876;12.300;2023-02-13T08:39:29;7.10;96.30
3727;DHT22;1879;45.876;12.300;2023-02-13T08:41:56;7.20;96.00
3727;DHT22;1879;45.876;12.300;2023-02-13T08:44:23;7.40;95.70
3727;DHT22;1879;45.876;12.300;2023-02-13T08:46:50;7.50;95.30
3727;DHT22;1879;45.876;12.300;2023-02-13T08:49:17;7.60;94.90
3727;DHT22;1879;45.876;12.300;2023-02-13T08:51:44;7.70;94.90
3727;DHT22;1879;45.876;12.300;2023-02-13T08:54:11;7.90;94.30
3727;DHT22;1879;45.876;12.300;2023-02-13T08:56:40;8.00;93.60
3727;DHT22;1879;45.876;12.300;2023-02-13T08:59:07;8.20;93.30
3727;DHT22;1879;45.876;12.300;2023-02-13T09:01:34;8.20;93.20
3727;DHT22;1879;45.876;12.300;2023-02-13T09:04:01;8.30;93.00
3727;DHT22;1879;45.876;12.300;2023-02-13T09:06:28;8.40;92.60
3727;DHT22;1879;45.876;12.300;2023-02-13T09:08:55;8.50;92.30
3727;DHT22;1879;45.876;12.300;2023-02-13T09:11:22;8.60;91.90
3727;DHT22;1879;45.876;12.300;2023-02-13T09:13:51;8.70;91.60
3727;DHT22;1879;45.876;12.300;2023-02-13T09:16:19;8.80;91.40
3727;DHT22;1879;45.876;12.300;2023-02-13T09:18:46;8.80;91.20
3727;DHT22;1879;45.876;12.300;2023-02-13T09:21:13;8.90;91.20
3727;DHT22;1879;45.876;12.300;2023-02-13T09:23:40;9.00;91.00
3727;DHT22;1879;45.876;12.300;2023-02-13T09:26:09;9.10;90.90
3727;DHT22;1879;45.876;12.300;2023-02-13T09:28:37;9.20;90.70
3727;DHT22;1879;45.876;12.300;2023-02-13T09:31:06;9.30;90.70
3727;DHT22;1879;45.876;12.300;2023-02-13T09:33:33;9.30;90.50
3727;DHT22;1879;45.876;12.300;2023-02-13T09:36:03;9.30;90.40
3727;DHT22;1879;45.876;12.300;2023-02-13T09:38:31;9.40;90.10
3727;DHT22;1879;45.876;12.300;2023-02-13T09:41:04;9.40;89.70
3727;DHT22;1879;45.876;12.300;2023-02-13T09:43:36;9.60;89.80
3727;DHT22;1879;45.876;12.300;2023-02-13T09:46:10;9.60;88.60
3727;DHT22;1879;45.876;12.300;2023-02-13T09:48:40;9.70;88.50
3727;DHT22;1879;45.876;12.300;2023-02-13T09:51:13;9.80;88.00
3727;DHT22;1879;45.876;12.300;2023-02-13T09:53:47;9.80;87.00
3727;DHT22;1879;45.876;12.300;2023-02-13T09:56:20;9.90;86.30
3727;DHT22;1879;45.876;12.300;2023-02-13T09:58:52;9.90;85.40
3727;DHT22;1879;45.876;12.300;2023-02-13T10:01:28;9.90;85.30
3727;DHT22;1879;45.876;12.300;2023-02-13T10:04:13;10.00;83.40
3727;DHT22;1879;45.876;12.300;2023-02-13T10:06:43;10.00;83.10
3727;DHT22;1879;45.876;12.300;2023-02-13T10:09:20;10.10;83.30
3727;DHT22;1879;45.876;12.300;2023-02-13T10:12:16;10.20;83.10
3727;DHT22;1879;45.876;12.300;2023-02-13T10:14:52;10.30;82.20
3727;DHT22;1879;45.876;12.300;2023-02-13T10:17:25;10.40;82.00
3727;DHT22;1879;45.876;12.300;2023-02-13T10:19:58;10.50;81.50
3727;DHT22;1879;45.876;12.300;2023-02-13T10:22:32;10.60;80.40
3727;DHT22;1879;45.876;12.300;2023-02-13T10:25:03;10.60;80.60
3727;DHT22;1879;45.876;12.300;2023-02-13T10:27:34;10.70;80.00
3727;DHT22;1879;45.876;12.300;2023-02-13T10:30:07;10.80;80.00
3727;DHT22;1879;45.876;12.300;2023-02-13T10:32:48;10.90;80.20
3727;DHT22;1879;45.876;12.300;2023-02-13T10:35:20;11.10;79.40
3727;DHT22;1879;45.876;12.300;2023-02-13T10:37:51;11.20;79.30
3727;DHT22;1879;45.876;12.300;2023-02-13T10:40:19;11.30;77.60
3727;DHT22;1879;45.876;12.300;2023-02-13T10:42:52;11.40;77.80
3727;DHT22;1879;45.876;12.300;2023-02-13T10:45:32;11.50;77.70
3727;DHT22;1879;45.876;12.300;2023-02-13T10:48:15;11.60;77.10
3727;DHT22;1879;45.876;12.300;2023-02-13T10:50:52;11.70;76.60
3727;DHT22;1879;45.876;12.300;2023-02-13T10:53:26;11.90;75.30
3727;DHT22;1879;45.876;12.300;2023-02-13T10:56:24;11.90;74.30
3727;DHT22;1879;45.876;12.300;2023-02-13T10:59:25;11.90;73.50
3727;DHT22;1879;45.876;12.300;2023-02-13T11:01:56;12.10;74.00
3727;DHT22;1879;45.876;12.300;2023-02-13T11:04:28;12.20;74.20
3727;DHT22;1879;45.876;12.300;2023-02-13T11:06:58;12.30;72.90
3727;DHT22;1879;45.876;12.300;2023-02-13T11:09:27;12.40;72.60
3727;DHT22;1879;45.876;12.300;2023-02-13T11:11:54;12.30;71.50
3727;DHT22;1879;45.876;12.300;2023-02-13T11:14:23;12.40;71.80
3727;DHT22;1879;45.876;12.300;2023-02-13T11:16:54;12.50;72.40
3727;DHT22;1879;45.876;12.300;2023-02-13T11:19:25;12.60;70.90
3727;DHT22;1879;45.876;12.300;2023-02-13T11:21:58;12.70;71.00
3727;DHT22;1879;45.876;12.300;2023-02-13T11:24:27;12.80;70.50
3727;DHT22;1879;45.876;12.300;2023-02-13T11:26:59;12.80;69.90
3727;DHT22;1879;45.876;12.300;2023-02-13T11:29:27;12.90;70.30
3727;DHT22;1879;45.876;12.300;2023-02-13T11:32:17;12.90;68.90
3727;DHT22;1879;45.876;12.300;2023-02-13T11:34:45;13.00;69.40
3727;DHT22;1879;45.876;12.300;2023-02-13T11:37:31;13.20;69.10
3727;DHT22;1879;45.876;12.300;2023-02-13T11:39:59;13.80;67.90
3727;DHT22;1879;45.876;12.300;2023-02-13T11:42:48;14.90;66.50
3727;DHT22;1879;45.876;12.300;2023-02-13T11:45:21;16.30;62.30
3727;DHT22;1879;45.876;12.300;2023-02-13T11:47:49;18.10;58.50
3727;DHT22;1879;45.876;12.300;2023-02-13T11:50:21;19.40;55.90
3727;DHT22;1879;45.876;12.300;2023-02-13T11:52:57;20.20;50.30
3727;DHT22;1879;45.876;12.300;2023-02-13T11:55:29;20.80;49.70
3727;DHT22;1879;45.876;12.300;2023-02-13T11:57:59;21.10;45.90
3727;DHT22;1879;45.876;12.300;2023-02-13T12:00:30;22.00;46.30
3727;DHT22;1879;45.876;12.300;2023-02-13T12:03:02;22.20;43.70
3727;DHT22;1879;45.876;12.300;2023-02-13T12:05:29;23.40;43.70
3727;DHT22;1879;45.876;12.300;2023-02-13T12:08:00;23.80;42.00
3727;DHT22;1879;45.876;12.300;2023-02-13T12:10:28;24.50;41.30
3727;DHT22;1879;45.876;12.300;2023-02-13T12:12:59;24.10;38.30
3727;DHT22;1879;45.876;12.300;2023-02-13T12:15:29;24.00;38.60
3727;DHT22;1879;45.876;12.300;2023-02-13T12:18:08;24.10;38.20
3727;DHT22;1879;45.876;12.300;2023-02-13T12:20:44;24.40;37.00
3727;DHT22;1879;45.876;12.300;2023-02-13T12:23:27;24.00;37.10
3727;DHT22;1879;45.876;12.300;2023-02-13T12:26:06;23.80;37.10
3727;DHT22;1879;45.876;12.300;2023-02-13T12:28:51;24.00;37.00
3727;DHT22;1879;45.876;12.300;2023-02-13T12:31:31;24.70;36.70
3727;DHT22;1879;45.876;12.300;2023-02-13T12:34:20;25.20;35.40
3727;DHT22;1879;45.876;12.300;2023-02-13T12:36:57;26.30;34.60
3727;DHT22;1879;45.876;12.300;2023-02-13T12:39:32;26.50;35.40
3727;DHT22;1879;45.876;12.300;2023-02-13T12:42:20;27.10;34.40
3727;DHT22;1879;45.876;12.300;2023-02-13T12:45:04;27.50;33.90
3727;DHT22;1879;45.876;12.300;2023-02-13T12:47:44;28.50;33.00
3727;DHT22;1879;45.876;12.300;2023-02-13T12:50:26;28.00;31.20
3727;DHT22;1879;45.876;12.300;2023-02-13T12:56:19;28.10;30.60
3727;DHT22;1879;45.876;12.300;2023-02-13T12:59:06;27.30;30.60
3727;DHT22;1879;45.876;12.300;2023-02-13T13:04:41;26.60;31.60
3727;DHT22;1879;45.876;12.300;2023-02-13T13:07:25;28.00;32.10
3727;DHT22;1879;45.876;12.300;2023-02-13T13:10:09;28.80;31.00
3727;DHT22;1879;45.876;12.300;2023-02-13T13:12:50;29.60;30.10
3727;DHT22;1879;45.876;12.300;2023-02-13T13:15:27;29.30;30.00
3727;DHT22;1879;45.876;12.300;2023-02-13T13:18:09;27.70;29.10
3727;DHT22;1879;45.876;12.300;2023-02-13T13:20:57;27.30;30.00
3727;DHT22;1879;45.876;12.300;2023-02-13T13:23:30;27.30;30.00
3727;DHT22;1879;45.876;12.300;2023-02-13T13:26:07;27.00;30.10
3727;DHT22;1879;45.876;12.300;2023-02-13T13:28:41;26.60;30.20
3727;DHT22;1879;45.876;12.300;2023-02-13T13:31:11;26.80;30.60
3727;DHT22;1879;45.876;12.300;2023-02-13T13:33:40;26.20;30.10
3727;DHT22;1879;45.876;12.300;2023-02-13T13:36:14;26.00;30.80
3727;DHT22;1879;45.876;12.300;2023-02-13T13:38:52;26.60;30.70
3727;DHT22;1879;45.876;12.300;2023-02-13T13:41:29;26.90;30.30
3727;DHT22;1879;45.876;12.300;2023-02-13T13:46:59;26.40;30.00
3727;DHT22;1879;45.876;12.300;2023-02-13T13:49:36;26.80;30.80
3727;DHT22;1879;45.876;12.300;2023-02-13T13:52:20;26.90;30.80
3727;DHT22;1879;45.876;12.300;2023-02-13T13:54:48;26.90;30.00
3727;DHT22;1879;45.876;12.300;2023-02-13T13:57:17;26.80;30.10
3727;DHT22;1879;45.876;12.300;2023-02-13T14:00:24;26.50;30.00
3727;DHT22;1879;45.876;12.300;2023-02-13T14:03:34;25.70;30.10
3727;DHT22;1879;45.876;12.300;2023-02-13T14:06:05;25.50;30.50
3727;DHT22;1879;45.876;12.300;2023-02-13T14:09:06;25.50;30.70
3727;DHT22;1879;45.876;12.300;2023-02-13T14:11:37;25.40;30.70
3727;DHT22;1879;45.876;12.300;2023-02-13T14:20:33;25.70;30.40
3727;DHT22;1879;45.876;12.300;2023-02-13T14:23:15;24.90;30.80
3727;DHT22;1879;45.876;12.300;2023-02-13T14:25:43;24.10;31.00
3727;DHT22;1879;45.876;12.300;2023-02-13T14:28:22;23.80;32.00
3727;DHT22;1879;45.876;12.300;2023-02-13T14:30:51;22.90;32.10
3727;DHT22;1879;45.876;12.300;2023-02-13T14:33:25;22.90;32.80
3727;DHT22;1879;45.876;12.300;2023-02-13T14:36:02;22.40;33.10
3727;DHT22;1879;45.876;12.300;2023-02-13T14:38:30;21.60;33.60
3727;DHT22;1879;45.876;12.300;2023-02-13T14:40:59;21.30;34.10
3727;DHT22;1879;45.876;12.300;2023-02-13T14:43:37;20.80;34.30
3727;DHT22;1879;45.876;12.300;2023-02-13T14:46:23;20.60;34.80
3727;DHT22;1879;45.876;12.300;2023-02-13T14:48:57;20.30;34.80
3727;DHT22;1879;45.876;12.300;2023-02-13T14:51:32;20.30;35.30
3727;DHT22;1879;45.876;12.300;2023-02-13T14:54:04;20.20;35.60
3727;DHT22;1879;45.876;12.300;2023-02-13T14:56:32;19.90;35.60
3727;DHT22;1879;45.876;12.300;2023-02-13T14:59:04;19.40;36.20
3727;DHT22;1879;45.876;12.300;2023-02-13T15:01:43;19.10;36.70
3727;DHT22;1879;45.876;12.300;2023-02-13T15:04:14;18.60;37.10
3727;DHT22;1879;45.876;12.300;2023-02-13T15:06:45;18.10;37.70
3727;DHT22;1879;45.876;12.300;2023-02-13T15:09:23;17.80;38.30
3727;DHT22;1879;45.876;12.300;2023-02-13T15:11:51;17.70;38.40
3727;DHT22;1879;45.876;12.300;2023-02-13T15:14:21;17.80;38.40
3727;DHT22;1879;45.876;12.300;2023-02-13T15:16:53;17.80;38.60
3727;DHT22;1879;45.876;12.300;2023-02-13T15:19:23;17.30;38.80
3727;DHT22;1879;45.876;12.300;2023-02-13T15:21:54;17.10;39.10
3727;DHT22;1879;45.876;12.300;2023-02-13T15:24:22;17.10;39.60
3727;DHT22;1879;45.876;12.300;2023-02-13T15:27:00;16.80;39.90
3727;DHT22;1879;45.876;12.300;2023-02-13T15:29:28;16.80;40.10
3727;DHT22;1879;45.876;12.300;2023-02-13T15:31:56;16.80;40.10
3727;DHT22;1879;45.876;12.300;2023-02-13T15:34:26;16.70;40.30
3727;DHT22;1879;45.876;12.300;2023-02-13T15:36:55;16.70;40.80
3727;DHT22;1879;45.876;12.300;2023-02-13T15:39:24;16.50;40.70
3727;DHT22;1879;45.876;12.300;2023-02-13T15:41:54;16.20;40.80
3727;DHT22;1879;45.876;12.300;2023-02-13T15:44:24;16.00;41.20
3727;DHT22;1879;45.876;12.300;2023-02-13T15:46:53;16.00;42.10
3727;DHT22;1879;45.876;12.300;2023-02-13T15:49:22;15.80;41.90
3727;DHT22;1879;45.876;12.300;2023-02-13T15:52:02;15.70;42.10
3727;DHT22;1879;45.876;12.300;2023-02-13T15:54:30;15.60;42.50
3727;DHT22;1879;45.876;12.300;2023-02-13T15:57:01;15.40;42.50
3727;DHT22;1879;45.876;12.300;2023-02-13T15:59:33;15.40;43.00
3727;DHT22;1879;45.876;12.300;2023-02-13T16:02:02;15.40;43.10
3727;DHT22;1879;45.876;12.300;2023-02-13T16:04:31;15.20;43.10
3727;DHT22;1879;45.876;12.300;2023-02-13T16:06:58;14.90;43.40
3727;DHT22;1879;45.876;12.300;2023-02-13T16:09:30;14.50;44.00
3727;DHT22;1879;45.876;12.300;2023-02-13T16:12:02;14.20;44.60
3727;DHT22;1879;45.876;12.300;2023-02-13T16:14:31;13.90;45.00
3727;DHT22;1879;45.876;12.300;2023-02-13T16:17:01;13.70;45.50
3727;DHT22;1879;45.876;12.300;2023-02-13T16:19:40;13.40;46.10
3727;DHT22;1879;45.876;12.300;2023-02-13T16:22:30;13.20;46.60
3727;DHT22;1879;45.876;12.300;2023-02-13T16:25:06;13.00;47.10
3727;DHT22;1879;45.876;12.300;2023-02-13T16:27:36;12.90;47.50
3727;DHT22;1879;45.876;12.300;2023-02-13T16:30:05;12.70;48.00
3727;DHT22;1879;45.876;12.300;2023-02-13T16:32:34;12.60;48.40
3727;DHT22;1879;45.876;12.300;2023-02-13T16:35:25;12.40;48.50
3727;DHT22;1879;45.876;12.300;2023-02-13T16:37:56;12.30;48.90
3727;DHT22;1879;45.876;12.300;2023-02-13T16:40:37;12.20;49.40
3727;DHT22;1879;45.876;12.300;2023-02-13T16:43:40;12.10;49.70
3727;DHT22;1879;45.876;12.300;2023-02-13T16:46:27;11.90;50.10
3727;DHT22;1879;45.876;12.300;2023-02-13T16:49:05;11.80;50.50